Indianapolis International Airport Indianapolis US
ICAO: KIND
IATA: IND
Category: Large
Scheduled Services: Yes

Elevation: 797 ft
TransAlt. 18000 ft.

Airport Communications:
APP:119.3
ATIS:134.25
CLNC DEL:128.75
DEP:119.05
GND:121.8
TERRE HAUTE RDO:122.55
INDY TWR:120.9
UNICOM:122.95

KIND Zoom In..

Runways:

(A) RW 05L length 11200 ft width 150 ft
ILS 111.75 / hdg 47

(B) RW 05R length 10000 ft width 150 ft
ILS 111.15 / hdg 47

(C) RW 14 length 7280 ft width 150 ft
ILS 110.50 / hdg 137

(D) RW 23L length 10000 ft width 150 ft
ILS 111.15 / hdg 227

(E) RW 23R length 11200 ft width 150 ft
ILS 111.75 / hdg 227

(F) RW 32 length 7280 ft width 150 ft
ILS 110.50 / hdg 317

Location; KIND
Day. 29 / Time. 02.21 Zulu
* Altimeter: 29.92
* Temperature: 20° c. 68°f.
* Wind from: 140° Speed 07 kn.
Dewpoint: 18° c.
Visibility: 10 Statute Miles.
Clouds: Scattered 6500 ft.
Clouds: Broken 11000 ft.
Clouds: Overcast 16000 ft.
Conditions: Light Rain.Conditions: Cumulonimbus.

KIND 290221Z 14007KT 10SM -RA SCT065 BKN110 OVC160 20/18 A2992 RMK AO2 LTG DSNT E TSE19 OCNL LTGIC DSNT NE-E CB DSNT NE-E MOV NE P0001 T02000183


Wind From 140°
Speed 07 kn.

 
 
jpsmedia worldairports.se 2020   terms of use